Time;durP1;ratioP1;P1;durP2;ratioP2;P2;SDS_P1;SDS_P2;PMS_P1;PMS_P2;Temp;Humidity;BMP_temperature;BMP_pressure;BME280_temperature;BME280_humidity;BME280_pressure;Samples;Min_cycle;Max_cycle;Signal;HPM_P1;HPM_P2
2023/06/09 00:02:03;;;;;;;2.72;2.40;;;;;;;27.91;36.03;101401.63;5007465;28;97373;-74
2023/06/09 00:04:33;;;;;;;3.03;2.42;;;;;;;27.92;35.94;101402.47;5008393;28;98883;-74
2023/06/09 00:07:02;;;;;;;2.40;2.20;;;;;;;27.91;36.00;101404.38;5008976;28;97258;-74
2023/06/09 00:09:31;;;;;;;2.20;2.00;;;;;;;27.92;36.16;101399.72;5008159;28;97074;-74
2023/06/09 00:11:58;;;;;;;2.40;2.20;;;;;;;27.91;35.93;101398.00;5009463;28;97229;-74
2023/06/09 00:14:25;;;;;;;3.08;2.33;;;;;;;27.91;35.89;101395.25;5007253;28;97895;-74
2023/06/09 00:16:52;;;;;;;2.35;2.10;;;;;;;27.91;35.99;101400.78;5006982;28;97770;-74
2023/06/09 00:19:19;;;;;;;2.50;2.15;;;;;;;27.91;35.82;101403.53;5007372;28;98019;-74
2023/06/09 00:21:49;;;;;;;2.85;2.20;;;;;;;27.91;35.94;101403.53;5008935;28;96710;-74
2023/06/09 00:24:21;;;;;;;2.78;2.20;;;;;;;27.91;35.86;101404.38;5007094;28;96803;-74
2023/06/09 00:26:49;;;;;;;2.92;2.30;;;;;;;27.90;36.05;101397.16;5008268;28;97870;-74
2023/06/09 00:29:17;;;;;;;2.47;2.28;;;;;;;27.90;36.21;101399.06;5008020;28;97017;-74
2023/06/09 00:31:45;;;;;;;3.25;2.10;;;;;;;27.90;36.00;101399.06;5003065;28;97388;-74
2023/06/09 00:34:12;;;;;;;2.45;2.00;;;;;;;27.90;35.90;101393.56;5000405;28;96740;-74
2023/06/09 00:36:40;;;;;;;2.58;2.25;;;;;;;27.90;36.04;101393.56;5008201;28;96815;-74
2023/06/09 00:39:07;;;;;;;2.47;2.22;;;;;;;27.89;35.99;101389.09;5008033;28;96728;-74
2023/06/09 00:41:38;;;;;;;3.53;2.45;;;;;;;27.90;36.04;101388.03;5008276;28;97469;-73
2023/06/09 00:44:05;;;;;;;2.72;2.25;;;;;;;27.89;35.98;101394.59;5006775;28;97059;-74
2023/06/09 00:46:32;;;;;;;2.88;2.25;;;;;;;27.89;35.96;101383.56;5008730;28;97065;-74
2023/06/09 00:49:00;;;;;;;2.75;2.00;;;;;;;27.89;35.98;101391.84;5006837;28;96815;-75
2023/06/09 00:51:26;;;;;;;2.22;1.92;;;;;;;27.88;36.01;101388.25;5007114;28;96764;-74
2023/06/09 00:53:53;;;;;;;2.50;1.83;;;;;;;27.87;35.87;101386.53;5006972;28;98104;-74
2023/06/09 00:56:23;;;;;;;2.65;2.20;;;;;;;27.88;35.87;101382.72;4997513;28;97375;-74
2023/06/09 00:58:51;;;;;;;2.78;2.17;;;;;;;27.87;36.09;101378.25;5006738;28;96867;-74
2023/06/09 01:01:17;;;;;;;2.53;1.92;;;;;;;27.87;35.85;101383.78;5008331;28;97358;-74
2023/06/09 01:03:46;;;;;;;2.50;2.30;;;;;;;27.87;35.78;101383.78;5007415;28;97713;-74
2023/06/09 01:06:42;;;;;;;2.53;2.20;;;;;;;27.88;36.12;101382.72;5006257;28;99771;-74
2023/06/09 01:09:24;;;;;;;2.17;1.98;;;;;;;27.86;36.11;101387.59;5006499;28;97050;-73
2023/06/09 01:12:08;;;;;;;2.83;2.30;;;;;;;27.85;35.91;101378.47;5008987;28;96809;-74
2023/06/09 01:14:58;;;;;;;2.20;2.00;;;;;;;27.84;35.97;101387.81;5006490;28;100510;-74
2023/06/09 01:17:27;;;;;;;2.33;2.05;;;;;;;27.83;35.98;101377.81;4995709;28;100909;-74
2023/06/09 01:20:04;;;;;;;2.25;2.05;;;;;;;27.84;36.12;101378.69;5007089;28;96783;-74
2023/06/09 01:22:59;;;;;;;2.35;1.85;;;;;;;27.84;36.10;101373.16;5007812;28;97609;-73
2023/06/09 01:25:34;;;;;;;3.92;2.10;;;;;;;27.81;36.04;101379.94;4978384;28;101034;-74
2023/06/09 01:28:05;;;;;;;2.80;2.00;;;;;;;27.81;36.13;101374.44;5006022;28;99866;-74
2023/06/09 01:30:34;;;;;;;2.70;2.20;;;;;;;27.81;36.09;101376.34;5004425;28;96687;-74
2023/06/09 01:33:05;;;;;;;2.88;2.10;;;;;;;27.82;35.91;101370.59;5005429;28;97033;-74
2023/06/09 01:35:33;;;;;;;2.60;2.40;;;;;;;27.82;36.26;101376.13;4997940;28;96544;-74
2023/06/09 01:38:00;;;;;;;2.53;2.10;;;;;;;27.82;36.04;101372.50;5007922;28;97110;-74
2023/06/09 01:40:29;;;;;;;2.53;1.85;;;;;;;27.82;36.02;101373.38;5006308;28;96888;-74
2023/06/09 01:43:04;;;;;;;2.38;2.00;;;;;;;27.83;36.02;101369.53;5006257;28;96825;-74
2023/06/09 01:45:31;;;;;;;2.05;1.85;;;;;;;27.81;36.09;101371.66;5005284;28;99282;-74
2023/06/09 01:47:58;;;;;;;3.20;2.10;;;;;;;27.81;36.16;101368.91;5005286;28;100241;-73
2023/06/09 01:50:51;;;;;;;2.10;1.90;;;;;;;27.81;36.05;101371.66;5007606;28;97021;-74
2023/06/09 01:53:39;;;;;;;2.70;2.13;;;;;;;27.81;36.18;101368.06;5005605;28;97054;-74
2023/06/09 01:56:12;;;;;;;2.03;1.70;;;;;;;27.80;36.02;101371.88;5004746;28;97663;-74
2023/06/09 01:58:45;;;;;;;2.00;1.77;;;;;;;27.79;35.87;101368.25;5005433;28;98751;-74
2023/06/09 02:01:16;;;;;;;2.30;1.92;;;;;;;27.79;36.19;101370.16;4996328;28;96690;-74
2023/06/09 02:03:46;;;;;;;2.30;2.10;;;;;;;27.78;35.94;101369.31;5005722;28;96843;-74
2023/06/09 02:06:13;;;;;;;3.38;1.83;;;;;;;27.78;36.00;101361.03;5005957;28;97257;-74
2023/06/09 02:08:40;;;;;;;2.13;1.90;;;;;;;27.79;35.81;101359.13;5006768;28;97049;-74
2023/06/09 02:11:09;;;;;;;2.47;1.88;;;;;;;27.80;35.99;101360.84;5005503;28;97934;-74
2023/06/09 02:13:36;;;;;;;2.45;2.00;;;;;;;27.78;35.99;101358.28;5005677;28;97188;-74
2023/06/09 02:16:03;;;;;;;2.92;2.00;;;;;;;27.78;35.94;101350.00;5005317;28;97889;-74
2023/06/09 02:18:32;;;;;;;2.28;1.88;;;;;;;27.79;35.96;101350.84;5006505;28;97105;-74
2023/06/09 02:20:58;;;;;;;2.00;1.80;;;;;;;27.79;35.96;101354.47;4989359;28;96742;-74
2023/06/09 02:23:25;;;;;;;2.13;1.92;;;;;;;27.78;36.03;101347.25;5006703;28;97166;-74
2023/06/09 02:25:52;;;;;;;2.08;1.88;;;;;;;27.78;36.00;101350.00;5006683;28;96946;-74
2023/06/09 02:28:18;;;;;;;2.15;1.88;;;;;;;27.78;35.83;101347.25;5005387;28;97975;-74
2023/06/09 02:30:45;;;;;;;2.53;1.92;;;;;;;27.78;36.09;101338.13;5005546;28;97561;-74
2023/06/09 02:33:15;;;;;;;2.03;1.70;;;;;;;27.79;36.14;101348.09;5002779;28;97190;-73
2023/06/09 02:35:42;;;;;;;2.67;2.08;;;;;;;27.77;36.08;101348.31;5008005;28;99996;-74
2023/06/09 02:38:09;;;;;;;2.53;1.90;;;;;;;27.78;36.10;101349.16;5008187;28;99147;-73
2023/06/09 02:40:36;;;;;;;2.75;2.00;;;;;;;27.77;35.65;101353.81;5009076;28;96949;-74
2023/06/09 02:43:02;;;;;;;2.42;1.80;;;;;;;27.77;35.89;101353.81;5008905;28;96677;-74
2023/06/09 02:45:29;;;;;;;2.75;1.80;;;;;;;27.77;35.94;101351.06;5008340;28;98994;-74
2023/06/09 02:47:56;;;;;;;2.20;1.95;;;;;;;27.77;36.01;101350.22;5006403;28;98507;-74
2023/06/09 02:50:23;;;;;;;2.08;1.80;;;;;;;27.76;35.88;101341.09;4997877;28;96774;-74
2023/06/09 02:52:56;;;;;;;2.20;1.65;;;;;;;27.76;35.96;101351.28;4992977;28;97503;-73
2023/06/09 02:55:22;;;;;;;2.05;1.77;;;;;;;27.77;35.94;101347.44;5008418;28;98186;-74
2023/06/09 02:57:50;;;;;;;1.90;1.67;;;;;;;27.76;35.94;101348.50;5008116;28;97566;-74
2023/06/09 03:00:22;;;;;;;2.40;1.70;;;;;;;27.75;35.88;101350.41;4992457;28;96834;-74
2023/06/09 03:02:51;;;;;;;1.73;1.60;;;;;;;27.76;35.89;101349.34;5008633;28;96828;-74
2023/06/09 03:05:20;;;;;;;1.83;1.67;;;;;;;27.74;35.99;101348.72;5008315;28;100738;-74
2023/06/09 03:07:49;;;;;;;2.00;1.75;;;;;;;27.74;36.16;101343.19;5008345;28;100634;-74
2023/06/09 03:10:16;;;;;;;2.15;1.73;;;;;;;27.75;35.90;101346.81;5007857;28;96778;-74
2023/06/09 03:12:44;;;;;;;2.53;1.75;;;;;;;27.74;36.21;101357.00;5005929;28;96862;-74
2023/06/09 03:15:11;;;;;;;2.10;1.90;;;;;;;27.74;36.02;101353.41;5006285;28;97158;-74
2023/06/09 03:17:41;;;;;;;2.03;1.83;;;;;;;27.74;36.01;101358.91;4995412;28;99813;-74
2023/06/09 03:20:09;;;;;;;1.63;1.52;;;;;;;27.75;35.83;101355.09;5007108;28;97948;-74
2023/06/09 03:22:36;;;;;;;2.50;1.70;;;;;;;27.74;36.04;101351.47;4987906;28;96813;-74
2023/06/09 03:25:03;;;;;;;2.13;1.75;;;;;;;27.74;35.99;101358.91;5001624;28;99206;-74
2023/06/09 03:27:30;;;;;;;3.00;2.00;;;;;;;27.73;36.00;101358.06;5008608;28;99624;-74
2023/06/09 03:29:57;;;;;;;1.95;1.77;;;;;;;27.73;35.95;101354.44;5006118;28;97768;-74
2023/06/09 03:32:24;;;;;;;2.15;1.95;;;;;;;27.72;35.99;101359.13;5009041;28;97282;-74
2023/06/09 03:34:50;;;;;;;2.17;1.80;;;;;;;27.73;36.10;101371.00;5007286;28;99130;-73
2023/06/09 03:37:17;;;;;;;3.17;2.15;;;;;;;27.73;35.71;101371.84;5009457;28;98486;-74
2023/06/09 03:39:44;;;;;;;2.63;1.90;;;;;;;27.72;35.87;101377.59;5007961;28;96719;-74
2023/06/09 03:42:14;;;;;;;1.88;1.75;;;;;;;27.72;35.82;101377.59;5008506;28;97315;-74
2023/06/09 03:44:40;;;;;;;2.75;2.22;;;;;;;27.72;35.85;101383.09;5005793;28;99760;-73
2023/06/09 03:47:09;;;;;;;2.03;1.70;;;;;;;27.71;35.89;101379.50;5008441;28;97307;-74
2023/06/09 03:49:36;;;;;;;2.58;1.80;;;;;;;27.71;35.80;101376.75;4990229;28;97034;-73
2023/06/09 03:52:06;;;;;;;1.80;1.50;;;;;;;27.72;35.91;101375.69;5009727;28;96929;-74
2023/06/09 03:54:34;;;;;;;1.83;1.70;;;;;;;27.72;35.99;101374.81;4990374;28;96601;-74
2023/06/09 03:57:01;;;;;;;2.28;1.63;;;;;;;27.72;35.91;101372.06;5007632;28;99082;-74
2023/06/09 03:59:28;;;;;;;2.15;1.95;;;;;;;27.71;35.89;101376.75;5006240;28;98905;-74
2023/06/09 04:01:55;;;;;;;3.08;1.92;;;;;;;27.71;35.74;101373.13;5007082;28;97120;-73
2023/06/09 04:04:22;;;;;;;2.33;2.08;;;;;;;27.71;35.82;101371.22;5006882;28;97987;-74
2023/06/09 04:06:49;;;;;;;3.00;1.80;;;;;;;27.70;35.94;101375.03;5007689;28;96615;-74
2023/06/09 04:09:20;;;;;;;2.70;2.10;;;;;;;27.70;35.91;101375.03;5007734;28;97120;-74
2023/06/09 04:11:47;;;;;;;1.98;1.77;;;;;;;27.71;35.70;101378.66;5006983;28;97255;-74
2023/06/09 04:14:13;;;;;;;1.88;1.70;;;;;;;27.70;35.88;101372.28;5006700;28;98966;-74
2023/06/09 04:16:41;;;;;;;1.90;1.70;;;;;;;27.70;35.91;101383.31;5007247;28;99856;-74
2023/06/09 04:19:09;;;;;;;2.42;1.58;;;;;;;27.69;35.97;101376.09;4991004;28;97538;-74
2023/06/09 04:21:38;;;;;;;2.35;1.80;;;;;;;27.71;35.77;101373.97;5007339;28;96836;-74
2023/06/09 04:24:05;;;;;;;1.80;1.60;;;;;;;27.70;35.91;101374.19;5006923;28;97116;-74
2023/06/09 04:26:32;;;;;;;1.75;1.50;;;;;;;27.69;35.91;101373.34;5006978;28;100143;-74
2023/06/09 04:28:59;;;;;;;1.92;1.70;;;;;;;27.69;35.98;101372.50;5007963;28;96822;-74
2023/06/09 04:31:33;;;;;;;1.55;1.42;;;;;;;27.70;35.99;101380.56;5007326;28;97038;-74
2023/06/09 04:34:09;;;;;;;2.20;2.00;;;;;;;27.69;35.77;101378.84;5006769;28;99553;-73
2023/06/09 04:36:40;;;;;;;1.90;1.65;;;;;;;27.68;35.88;101382.69;5006652;28;97503;-73
2023/06/09 04:39:09;;;;;;;2.88;1.80;;;;;;;27.69;35.96;101380.75;5006917;28;97118;-74
2023/06/09 04:41:37;;;;;;;3.33;1.83;;;;;;;27.69;36.00;101387.13;5023612;28;97200;-74
2023/06/09 04:44:05;;;;;;;2.20;1.70;;;;;;;27.70;36.06;101393.50;5006057;28;100421;-74
2023/06/09 04:46:41;;;;;;;2.88;1.80;;;;;;;27.70;35.62;101396.28;5006676;28;98684;-74
2023/06/09 04:49:12;;;;;;;2.00;1.70;;;;;;;27.68;35.86;101396.47;5006301;28;96759;-74
2023/06/09 04:51:46;;;;;;;2.50;1.73;;;;;;;27.70;35.80;101396.28;4990399;28;97086;-74
2023/06/09 04:54:17;;;;;;;2.15;1.50;;;;;;;27.69;35.79;101392.66;4989778;28;100209;-74
2023/06/09 04:56:52;;;;;;;2.00;1.67;;;;;;;27.69;35.90;101395.41;4998375;28;98438;-74
2023/06/09 04:59:22;;;;;;;1.60;1.50;;;;;;;27.70;35.88;101386.06;5006404;28;96801;-74
2023/06/09 05:01:51;;;;;;;2.20;1.50;;;;;;;27.70;35.90;101394.34;5006669;28;96939;-74
2023/06/09 05:04:19;;;;;;;2.20;1.77;;;;;;;27.70;36.00;101393.50;5001917;28;96753;-74
2023/06/09 05:06:46;;;;;;;1.95;1.75;;;;;;;27.70;36.02;101399.88;5007013;28;99437;-74
2023/06/09 05:09:13;;;;;;;1.73;1.52;;;;;;;27.70;35.83;101396.28;5007889;28;96721;-74
2023/06/09 05:11:41;;;;;;;2.08;1.63;;;;;;;27.71;35.77;101400.72;5006582;28;97114;-74
2023/06/09 05:14:08;;;;;;;1.90;1.70;;;;;;;27.70;35.90;101393.50;5006362;28;100420;-74
2023/06/09 05:16:35;;;;;;;1.65;1.55;;;;;;;27.71;35.59;101393.28;5006914;28;99856;-74
2023/06/09 05:19:04;;;;;;;1.52;1.42;;;;;;;27.72;35.94;101396.91;5006628;28;96777;-74
2023/06/09 05:21:31;;;;;;;2.08;1.42;;;;;;;27.71;35.78;101395.22;5006952;28;97084;-74
2023/06/09 05:23:57;;;;;;;1.80;1.60;;;;;;;27.71;35.88;101397.97;5005186;28;96755;-74
2023/06/09 05:26:25;;;;;;;1.98;1.40;;;;;;;27.71;35.94;101396.06;5005844;28;100612;-74
2023/06/09 05:28:52;;;;;;;2.00;1.38;;;;;;;27.71;35.84;101393.28;5004865;28;96832;-74
2023/06/09 05:31:19;;;;;;;1.98;1.80;;;;;;;27.71;35.65;101396.06;5005684;28;96958;-74
2023/06/09 05:33:46;;;;;;;2.17;1.73;;;;;;;27.71;35.85;101396.06;5005834;28;98909;-74
2023/06/09 05:36:13;;;;;;;2.13;1.65;;;;;;;27.73;35.79;101393.09;5005896;28;97418;-74
2023/06/09 05:38:45;;;;;;;1.63;1.50;;;;;;;27.72;35.78;101397.75;5006051;28;96745;-74
2023/06/09 05:41:14;;;;;;;1.90;1.70;;;;;;;27.72;36.01;101395.00;5001511;28;97542;-74
2023/06/09 05:43:41;;;;;;;2.50;1.95;;;;;;;27.72;35.89;101395.00;5005562;28;98961;-74
2023/06/09 05:46:07;;;;;;;2.28;1.73;;;;;;;27.73;35.73;101396.69;5007888;28;97226;-74
2023/06/09 05:48:34;;;;;;;2.15;1.77;;;;;;;27.72;35.76;101400.53;5007493;28;97161;-74
2023/06/09 05:51:00;;;;;;;2.88;1.70;;;;;;;27.72;35.65;101395.00;5007602;28;96847;-74
2023/06/09 05:53:27;;;;;;;2.63;1.80;;;;;;;27.73;35.67;101396.69;5004744;28;99824;-74
2023/06/09 05:55:54;;;;;;;1.80;1.70;;;;;;;27.74;35.76;101403.06;5007591;28;96682;-74
2023/06/09 05:58:20;;;;;;;2.30;1.67;;;;;;;27.74;35.92;101400.31;5007381;28;96730;-74
2023/06/09 06:00:49;;;;;;;2.20;1.98;;;;;;;27.74;35.76;101398.41;5006727;28;96936;-74
2023/06/09 06:03:15;;;;;;;2.53;1.75;;;;;;;27.74;36.10;101394.78;5006533;28;97209;-74
2023/06/09 06:05:44;;;;;;;2.42;1.80;;;;;;;27.74;35.77;101395.66;5007251;28;97251;-75
2023/06/09 06:08:11;;;;;;;2.28;1.58;;;;;;;27.75;35.89;101396.50;5005560;28;96856;-74
2023/06/09 06:10:37;;;;;;;1.70;1.60;;;;;;;27.75;35.64;101396.50;5006299;28;97684;-74
2023/06/09 06:13:04;;;;;;;1.92;1.50;;;;;;;27.75;35.77;101394.59;5006711;28;97684;-74
2023/06/09 06:15:31;;;;;;;1.67;1.55;;;;;;;27.76;35.70;101388.00;5003507;28;100832;-73
2023/06/09 06:17:57;;;;;;;1.98;1.70;;;;;;;27.75;36.01;101394.59;5004739;28;97234;-73
2023/06/09 06:20:24;;;;;;;2.15;1.70;;;;;;;27.76;35.68;101396.28;5006720;28;97229;-74
2023/06/09 06:22:51;;;;;;;2.35;1.52;;;;;;;27.76;35.42;101400.94;5005211;28;100548;-74
2023/06/09 06:25:18;;;;;;;2.10;1.50;;;;;;;27.77;35.82;101402.66;5005893;28;97314;-73
2023/06/09 06:27:44;;;;;;;2.25;1.77;;;;;;;27.77;35.77;101397.13;5005750;28;96932;-74
2023/06/09 06:30:17;;;;;;;2.08;1.65;;;;;;;27.77;35.87;101395.22;4988985;28;99681;-74
2023/06/09 06:32:56;;;;;;;2.22;1.63;;;;;;;27.76;35.82;101407.31;4976491;28;97800;-73
2023/06/09 06:35:27;;;;;;;2.70;1.73;;;;;;;27.77;35.66;101402.66;5005090;28;96675;-74
2023/06/09 06:37:54;;;;;;;1.70;1.60;;;;;;;27.76;35.77;101401.81;5006103;28;96654;-73
2023/06/09 06:40:21;;;;;;;2.17;1.63;;;;;;;27.77;36.27;101399.88;5005011;28;96912;-73
2023/06/09 06:42:49;;;;;;;2.42;1.70;;;;;;;27.76;35.81;101396.28;5004530;28;98853;-73
2023/06/09 06:45:23;;;;;;;2.53;1.70;;;;;;;27.77;35.76;101402.66;5004539;28;100604;-74
2023/06/09 06:47:49;;;;;;;2.40;1.73;;;;;;;27.76;35.62;101393.53;5005599;28;96735;-74
2023/06/09 06:50:16;;;;;;;1.90;1.48;;;;;;;27.78;35.67;101401.59;5006438;28;96925;-73
2023/06/09 06:52:43;;;;;;;2.28;1.88;;;;;;;27.78;35.94;101401.59;5004528;28;97335;-73
2023/06/09 06:55:10;;;;;;;2.22;1.60;;;;;;;27.78;35.86;101398.84;5002797;28;97613;-74
2023/06/09 06:57:38;;;;;;;2.63;1.65;;;;;;;27.79;35.40;101401.38;5006504;28;96869;-74
2023/06/09 07:00:14;;;;;;;1.90;1.75;;;;;;;27.79;35.69;101404.16;5006583;28;96833;-73
2023/06/09 07:02:43;;;;;;;2.40;1.50;;;;;;;27.78;35.73;101407.13;5005377;28;96934;-74
2023/06/09 07:05:15;;;;;;;2.37;1.77;;;;;;;27.78;35.65;101396.06;5004826;28;96800;-74
2023/06/09 07:07:43;;;;;;;2.28;1.63;;;;;;;27.79;35.87;101397.78;5005006;28;97220;-74
2023/06/09 07:10:10;;;;;;;2.10;1.70;;;;;;;27.78;35.53;101391.41;4998881;28;96865;-74
2023/06/09 07:12:37;;;;;;;1.90;1.45;;;;;;;27.79;35.81;101387.59;5004571;28;96864;-74
2023/06/09 07:15:04;;;;;;;2.58;1.50;;;;;;;27.79;35.54;101393.09;4981900;28;98249;-74
2023/06/09 07:17:31;;;;;;;2.42;1.98;;;;;;;27.80;35.94;101396.72;5006343;28;96712;-74
2023/06/09 07:19:58;;;;;;;2.08;1.60;;;;;;;27.79;35.92;101393.09;4990064;28;96927;-74
2023/06/09 07:22:24;;;;;;;2.00;1.75;;;;;;;27.80;35.70;101396.72;5009575;28;96877;-74
2023/06/09 07:24:51;;;;;;;3.08;1.55;;;;;;;27.79;35.80;101390.34;5008747;28;97521;-74
2023/06/09 07:27:18;;;;;;;3.20;1.98;;;;;;;27.80;35.74;101388.44;5008979;28;96702;-73
2023/06/09 07:29:44;;;;;;;3.25;2.22;;;;;;;27.80;35.56;101400.31;5007550;28;97135;-74
2023/06/09 07:32:11;;;;;;;1.95;1.73;;;;;;;27.81;35.79;101393.75;5007971;28;96967;-73
2023/06/09 07:34:37;;;;;;;2.78;2.05;;;;;;;27.80;35.84;101394.81;5007144;28;97407;-74
2023/06/09 07:37:05;;;;;;;2.33;1.90;;;;;;;27.81;35.58;101393.75;5009224;28;96739;-74
2023/06/09 07:39:34;;;;;;;2.20;1.77;;;;;;;27.82;35.79;101394.59;5009145;28;96746;-72
2023/06/09 07:42:01;;;;;;;2.22;1.77;;;;;;;27.82;35.52;101400.97;4998170;28;97201;-74
2023/06/09 07:44:27;;;;;;;2.50;1.83;;;;;;;27.81;36.02;101391.00;5006678;28;98102;-73
2023/06/09 07:46:54;;;;;;;2.55;2.03;;;;;;;27.83;35.65;101391.63;5009652;28;96793;-73
2023/06/09 07:49:20;;;;;;;2.33;2.03;;;;;;;27.83;35.36;101399.91;4997248;28;96960;-73
2023/06/09 07:51:49;;;;;;;2.95;2.00;;;;;;;27.82;35.68;101394.59;5009529;28;97545;-73
2023/06/09 07:54:16;;;;;;;2.63;2.00;;;;;;;27.84;35.57;101392.47;5007589;28;97372;-73
2023/06/09 07:56:48;;;;;;;2.78;2.17;;;;;;;27.82;35.61;101392.69;5008871;28;97331;-73
2023/06/09 07:59:18;;;;;;;3.78;1.92;;;;;;;27.84;35.68;101395.25;5007697;28;97258;-73
2023/06/09 08:01:46;;;;;;;1.98;1.70;;;;;;;27.84;35.89;101398.84;5008095;28;97198;-73
2023/06/09 08:04:13;;;;;;;2.58;2.00;;;;;;;27.84;35.65;101404.38;5007209;28;97239;-73
2023/06/09 08:06:40;;;;;;;2.22;1.85;;;;;;;27.84;35.80;101392.47;5005648;28;96855;-73
2023/06/09 08:09:08;;;;;;;2.55;2.05;;;;;;;27.84;35.80;101396.09;5008603;28;96958;-73
2023/06/09 08:11:38;;;;;;;2.65;2.17;;;;;;;27.85;35.62;101396.94;4990702;28;100536;-73
2023/06/09 08:14:06;;;;;;;2.67;1.75;;;;;;;27.85;35.49;101399.69;5009294;28;97174;-73
2023/06/09 08:16:33;;;;;;;4.25;2.10;;;;;;;27.85;35.65;101396.94;5008463;28;96804;-73
2023/06/09 08:19:00;;;;;;;3.80;2.20;;;;;;;27.85;35.75;101394.19;5008551;28;96818;-73
2023/06/09 08:21:26;;;;;;;2.35;1.90;;;;;;;27.84;35.67;101396.09;5008914;28;96785;-72
2023/06/09 08:23:53;;;;;;;2.58;2.20;;;;;;;27.86;35.73;101387.59;5006496;28;97350;-73
2023/06/09 08:26:20;;;;;;;2.75;2.00;;;;;;;27.87;35.83;101392.06;5008886;28;96719;-73
2023/06/09 08:28:46;;;;;;;2.25;1.85;;;;;;;27.86;35.74;101393.13;5008358;28;96789;-73
2023/06/09 08:31:13;;;;;;;2.85;2.00;;;;;;;27.86;35.74;101384.84;5007757;28;97146;-73
2023/06/09 08:33:39;;;;;;;2.65;1.90;;;;;;;27.88;35.88;101384.63;5008163;28;97217;-73
2023/06/09 08:36:07;;;;;;;3.58;2.28;;;;;;;27.87;35.78;101389.28;5008605;28;96725;-73
2023/06/09 08:38:35;;;;;;;5.35;2.40;;;;;;;27.87;35.78;101380.16;5008826;28;96878;-73
2023/06/09 08:41:11;;;;;;;2.83;2.35;;;;;;;27.88;35.46;101387.38;4991003;28;98508;-73
2023/06/09 08:43:37;;;;;;;2.90;2.15;;;;;;;27.87;35.62;101386.53;5008446;28;97336;-73
2023/06/09 08:46:06;;;;;;;3.67;2.70;;;;;;;27.88;35.94;101390.16;5007987;28;96920;-73
2023/06/09 08:48:37;;;;;;;3.80;2.20;;;;;;;27.89;35.84;101386.31;4990205;28;97451;-73
2023/06/09 08:51:04;;;;;;;2.97;2.10;;;;;;;27.88;35.64;101387.38;5006615;28;97795;-73
2023/06/09 08:53:31;;;;;;;2.60;2.28;;;;;;;27.88;35.67;101388.25;5008443;28;98339;-73
2023/06/09 08:56:01;;;;;;;2.72;2.30;;;;;;;27.90;35.65;101390.78;5006644;28;97269;-73
2023/06/09 08:58:28;;;;;;;3.65;2.20;;;;;;;27.88;35.81;101385.47;5008308;28;96651;-73
2023/06/09 09:00:54;;;;;;;3.58;2.40;;;;;;;27.89;35.72;101380.81;5006973;28;96925;-74
2023/06/09 09:03:22;;;;;;;3.20;2.70;;;;;;;27.89;35.96;101389.09;5008596;28;97371;-73
2023/06/09 09:05:49;;;;;;;2.85;2.42;;;;;;;27.89;35.77;101381.66;5006506;28;97098;-73
2023/06/09 09:08:16;;;;;;;3.13;2.17;;;;;;;27.89;35.63;101378.91;5008717;28;97232;-73
2023/06/09 09:10:45;;;;;;;3.67;2.30;;;;;;;27.89;35.84;101376.13;5002111;28;97944;-73
2023/06/09 09:13:13;;;;;;;2.97;2.40;;;;;;;27.89;35.63;101370.63;5007449;28;97380;-73
2023/06/09 09:15:47;;;;;;;2.95;2.40;;;;;;;27.91;35.94;101378.69;5007620;28;96835;-73
2023/06/09 09:18:14;;;;;;;3.33;2.45;;;;;;;27.89;35.86;101381.66;5007670;28;96991;-73
2023/06/09 09:20:41;;;;;;;2.78;2.42;;;;;;;27.90;35.90;101374.22;5007912;28;96665;-72
2023/06/09 09:23:08;;;;;;;3.10;2.42;;;;;;;27.90;35.95;101368.69;5007559;28;97394;-73
2023/06/09 09:25:35;;;;;;;3.88;2.65;;;;;;;27.90;36.05;101374.22;5007624;28;96725;-73
2023/06/09 09:28:15;;;;;;;2.50;2.30;;;;;;;27.92;36.01;101374.88;5008659;28;97344;-73
2023/06/09 09:30:55;;;;;;;3.67;2.88;;;;;;;27.92;35.94;101363.81;5006817;28;96900;-73
2023/06/09 09:33:27;;;;;;;3.47;2.60;;;;;;;27.91;36.07;101364.88;5007614;28;98719;-73
2023/06/09 09:35:58;;;;;;;5.55;2.60;;;;;;;27.91;36.00;101367.66;5007381;28;96814;-73
2023/06/09 09:38:29;;;;;;;4.00;2.40;;;;;;;27.92;35.88;101350.88;5006423;28;97082;-72
2023/06/09 09:40:59;;;;;;;2.95;2.33;;;;;;;27.92;36.22;101352.78;5007650;28;97701;-73
2023/06/09 09:43:27;;;;;;;3.15;2.60;;;;;;;27.92;36.11;101358.31;5007241;28;97385;-73
2023/06/09 09:45:56;;;;;;;3.17;2.55;;;;;;;27.91;36.05;101351.06;5006948;28;97218;-73
2023/06/09 09:48:24;;;;;;;3.67;2.67;;;;;;;27.91;36.01;101360.22;5005432;28;96921;-73
2023/06/09 09:50:54;;;;;;;3.03;2.58;;;;;;;27.92;36.11;101356.38;5005540;28;97837;-73
2023/06/09 09:53:23;;;;;;;3.53;2.70;;;;;;;27.92;35.93;101353.63;5004210;28;97368;-73
2023/06/09 09:55:54;;;;;;;3.85;2.78;;;;;;;27.93;36.24;101346.19;5005999;28;96608;-73
2023/06/09 09:58:29;;;;;;;3.00;2.40;;;;;;;27.92;36.11;101345.34;5007175;28;97072;-73
2023/06/09 10:00:59;;;;;;;3.75;2.72;;;;;;;27.92;36.10;101350.88;5005753;28;97028;-73
2023/06/09 10:03:27;;;;;;;3.40;2.72;;;;;;;27.92;36.01;101344.50;5005854;28;99702;-74
2023/06/09 10:05:57;;;;;;;4.93;2.83;;;;;;;27.93;36.24;101346.19;4999636;28;96959;-73
2023/06/09 10:08:28;;;;;;;4.50;3.08;;;;;;;27.93;36.16;101341.53;5001194;28;96962;-73
2023/06/09 10:11:02;;;;;;;4.00;2.60;;;;;;;27.93;36.35;101340.69;5007065;28;97505;-73
2023/06/09 10:13:29;;;;;;;3.03;2.70;;;;;;;27.92;36.05;101336.22;5006931;28;96865;-73
2023/06/09 10:15:57;;;;;;;3.10;2.80;;;;;;;27.92;36.22;101334.31;5006160;28;97192;-73
2023/06/09 10:18:24;;;;;;;4.22;2.75;;;;;;;27.92;36.16;101331.53;5006229;28;97331;-73
2023/06/09 10:20:52;;;;;;;3.58;2.53;;;;;;;27.93;36.25;101327.72;5005625;28;98499;-72
2023/06/09 10:23:20;;;;;;;3.28;2.65;;;;;;;27.94;36.16;101336.84;5004359;28;96707;-72
2023/06/09 10:25:48;;;;;;;4.80;2.65;;;;;;;27.93;36.22;101329.63;5004781;28;96968;-73
2023/06/09 10:28:16;;;;;;;3.55;2.45;;;;;;;27.94;36.13;101334.09;5006637;28;96846;-74
2023/06/09 10:30:53;;;;;;;2.97;2.65;;;;;;;27.94;36.27;101332.19;4998907;28;96852;-72
2023/06/09 10:33:40;;;;;;;4.07;2.70;;;;;;;27.96;36.21;101337.50;5004488;28;100111;-72
2023/06/09 10:36:09;;;;;;;3.80;3.05;;;;;;;27.93;35.96;101336.00;5005203;28;96819;-73
2023/06/09 10:38:53;;;;;;;3.40;2.60;;;;;;;27.95;36.31;101333.03;5006473;28;97339;-73
2023/06/09 10:41:40;;;;;;;3.57;2.73;;;;;;;27.94;36.16;101334.09;5004867;28;98154;-72
2023/06/09 10:44:21;;;;;;;3.75;2.80;;;;;;;27.93;36.12;101324.97;5007113;28;97246;-73
2023/06/09 10:46:50;;;;;;;2.75;2.40;;;;;;;27.93;36.38;101324.97;4996207;28;96774;-72
2023/06/09 10:49:23;;;;;;;4.43;2.50;;;;;;;27.94;36.36;101321.13;5006675;28;98708;-72
2023/06/09 10:51:50;;;;;;;3.55;3.10;;;;;;;27.93;36.20;101324.97;5006333;28;97375;-72
2023/06/09 10:54:18;;;;;;;3.85;2.42;;;;;;;27.94;36.20;101326.66;5006663;28;96763;-72
2023/06/09 10:57:00;;;;;;;3.45;2.90;;;;;;;27.96;36.21;101323.69;5009500;28;96724;-72
2023/06/09 10:59:27;;;;;;;3.20;2.75;;;;;;;27.93;36.32;101316.69;5009816;28;96928;-72
2023/06/09 11:02:03;;;;;;;3.25;2.70;;;;;;;27.94;36.28;101310.09;5008284;28;99488;-72
2023/06/09 11:04:41;;;;;;;3.05;2.75;;;;;;;27.95;36.25;101305.44;5009480;28;96793;-72
2023/06/09 11:07:15;;;;;;;3.05;2.53;;;;;;;27.94;36.29;101310.09;5004588;28;96903;-71
2023/06/09 11:09:50;;;;;;;3.28;2.72;;;;;;;27.96;36.50;101304.38;5008219;28;96645;-72
2023/06/09 11:12:36;;;;;;;4.00;2.60;;;;;;;27.95;36.20;101300.75;5009484;28;96815;-72
2023/06/09 11:15:03;;;;;;;3.40;2.72;;;;;;;27.94;36.27;101293.53;5009676;28;98000;-72
2023/06/09 11:17:37;;;;;;;3.33;2.63;;;;;;;27.95;36.32;101300.75;5008678;28;96972;-72
2023/06/09 11:20:14;;;;;;;4.50;2.47;;;;;;;27.95;36.27;101294.38;5010030;28;97020;-72
2023/06/09 11:22:41;;;;;;;3.22;2.60;;;;;;;27.95;36.38;101297.13;5009123;28;97700;-73
2023/06/09 11:25:28;;;;;;;2.60;2.30;;;;;;;27.96;36.34;101296.09;5006894;28;98437;-72
2023/06/09 11:27:55;;;;;;;3.55;2.55;;;;;;;27.95;36.31;101289.72;5009032;28;96839;-72
2023/06/09 11:30:24;;;;;;;3.42;2.80;;;;;;;27.96;36.31;101285.03;5009623;28;96766;-72
2023/06/09 11:32:58;;;;;;;3.75;2.85;;;;;;;27.98;36.20;101282.91;5009482;28;96798;-71
2023/06/09 11:35:28;;;;;;;;;;;;;;;27.92;36.29;101283.75;5011036;28;96665;-72